createdAt,value
2022-09-15T00:00:31.528Z,4.28
2022-09-15T00:02:58.594Z,3.03
2022-09-15T00:05:25.563Z,4.72
2022-09-15T00:07:52.475Z,3.72
2022-09-15T00:10:19.571Z,4.50
2022-09-15T00:12:46.581Z,3.58
2022-09-15T00:15:14.909Z,3.55
2022-09-15T00:17:43.327Z,3.78
2022-09-15T00:20:10.959Z,3.72
2022-09-15T00:22:38.099Z,3.50
2022-09-15T00:25:06.085Z,3.08
2022-09-15T00:27:33.938Z,3.05
2022-09-15T00:30:01.245Z,3.10
2022-09-15T00:32:29.491Z,3.63
2022-09-15T00:34:56.461Z,3.92
2022-09-15T00:37:23.832Z,3.80
2022-09-15T00:39:50.821Z,3.72
2022-09-15T00:42:22.639Z,3.95
2022-09-15T00:44:54.977Z,3.40
2022-09-15T00:47:33.440Z,3.22
2022-09-15T00:50:06.734Z,3.00
2022-09-15T00:52:43.555Z,3.40
2022-09-15T00:55:20.623Z,3.28
2022-09-15T00:57:53.604Z,2.92
2022-09-15T01:00:24.445Z,2.88
2022-09-15T01:02:51.627Z,2.92
2022-09-15T01:05:29.951Z,2.90
2022-09-15T01:08:01.927Z,2.83
2022-09-15T01:10:34.829Z,2.75
2022-09-15T01:13:06.929Z,3.03
2022-09-15T01:15:57.729Z,3.15
2022-09-15T01:18:36.344Z,2.90
2022-09-15T01:21:20.582Z,3.20
2022-09-15T01:23:59.891Z,2.60
2022-09-15T01:27:06.559Z,2.88
2022-09-15T01:30:07.513Z,2.38
2022-09-15T01:33:04.873Z,2.70
2022-09-15T01:35:52.343Z,2.97
2022-09-15T01:38:56.694Z,3.05
2022-09-15T01:41:47.266Z,2.90
2022-09-15T01:44:16.974Z,3.08
2022-09-15T01:46:47.696Z,3.17
2022-09-15T01:49:20.714Z,3.58
2022-09-15T01:51:50.940Z,2.78
2022-09-15T01:54:22.604Z,2.40
2022-09-15T01:56:49.903Z,2.95
2022-09-15T01:59:16.840Z,2.78
2022-09-15T02:01:51.943Z,2.83
2022-09-15T02:04:46.399Z,2.88
2022-09-15T02:07:31.993Z,2.63
2022-09-15T02:10:20.151Z,2.55
2022-09-15T02:13:00.520Z,2.10
2022-09-15T02:15:43.601Z,2.75
2022-09-15T02:18:14.190Z,2.90
2022-09-15T02:20:49.369Z,2.97
2022-09-15T02:23:40.972Z,2.75
2022-09-15T02:26:11.651Z,3.10
2022-09-15T02:28:41.715Z,2.92
2022-09-15T02:31:13.846Z,3.00
2022-09-15T02:33:47.309Z,3.03
2022-09-15T02:36:17.879Z,2.92
2022-09-15T02:38:50.485Z,3.08
2022-09-15T02:41:17.525Z,2.53
2022-09-15T02:43:49.358Z,2.70
2022-09-15T02:46:20.009Z,2.92
2022-09-15T02:48:47.152Z,2.92
2022-09-15T02:51:16.344Z,3.25
2022-09-15T02:53:44.558Z,2.70
2022-09-15T02:56:11.644Z,2.90
2022-09-15T02:58:38.567Z,3.35
2022-09-15T03:01:07.485Z,3.13
2022-09-15T03:03:34.981Z,3.03
2022-09-15T03:06:17.412Z,3.30
2022-09-15T03:08:49.686Z,2.88
2022-09-15T03:11:18.305Z,3.20
2022-09-15T03:13:45.923Z,2.58
2022-09-15T03:16:15.104Z,3.30
2022-09-15T03:18:42.415Z,3.20
2022-09-15T03:21:11.869Z,2.97
2022-09-15T03:23:39.457Z,3.17
2022-09-15T03:26:07.879Z,3.15
2022-09-15T03:28:36.125Z,3.17
2022-09-15T03:31:03.624Z,2.70
2022-09-15T03:33:30.758Z,3.08
2022-09-15T03:35:58.344Z,3.50
2022-09-15T03:38:26.048Z,3.08
2022-09-15T03:41:09.714Z,3.40
2022-09-15T03:43:37.646Z,3.28
2022-09-15T03:46:06.841Z,3.42
2022-09-15T03:48:35.759Z,3.30
2022-09-15T03:51:04.631Z,3.53
2022-09-15T03:53:39.698Z,3.58
2022-09-15T03:56:28.119Z,3.67
2022-09-15T03:58:55.127Z,3.40
2022-09-15T04:01:23.093Z,3.83
2022-09-15T04:03:51.636Z,3.78
2022-09-15T04:06:20.916Z,4.07
2022-09-15T04:08:49.129Z,3.58
2022-09-15T04:11:17.782Z,3.35
2022-09-15T04:13:45.189Z,3.88
2022-09-15T04:16:15.096Z,3.85
2022-09-15T04:18:42.129Z,4.00
2022-09-15T04:21:13.332Z,3.70
2022-09-15T04:23:41.626Z,4.45
2022-09-15T04:26:14.898Z,4.53
2022-09-15T04:28:41.859Z,6.38
2022-09-15T04:31:11.772Z,7.75
2022-09-15T04:33:40.575Z,5.72
2022-09-15T04:36:11.007Z,4.65
2022-09-15T04:38:38.783Z,4.60
2022-09-15T04:41:06.681Z,4.18
2022-09-15T04:43:33.954Z,3.88
2022-09-15T04:46:00.985Z,4.43
2022-09-15T04:48:28.486Z,3.90
2022-09-15T04:51:08.105Z,4.10
2022-09-15T04:53:36.890Z,4.22
2022-09-15T04:56:04.055Z,4.05
2022-09-15T04:58:34.919Z,3.72
2022-09-15T05:01:10.773Z,4.15
2022-09-15T05:03:38.414Z,4.40
2022-09-15T05:06:11.553Z,3.75
2022-09-15T05:08:39.151Z,3.67
2022-09-15T05:11:11.898Z,3.90
2022-09-15T05:13:39.710Z,4.10
2022-09-15T05:16:14.098Z,3.95
2022-09-15T05:18:42.596Z,4.70
2022-09-15T05:21:11.109Z,4.45
2022-09-15T05:23:38.319Z,3.92
2022-09-15T05:26:08.859Z,4.10
2022-09-15T05:28:37.528Z,4.60
2022-09-15T05:31:10.407Z,4.68
2022-09-15T05:33:37.589Z,4.75
2022-09-15T05:36:05.210Z,4.70
2022-09-15T05:38:33.042Z,4.35
2022-09-15T05:41:12.731Z,4.50
2022-09-15T05:43:39.924Z,4.47
2022-09-15T05:46:07.963Z,4.63
2022-09-15T05:48:35.248Z,5.35
2022-09-15T05:51:03.332Z,4.68
2022-09-15T05:53:31.115Z,5.03
2022-09-15T05:56:05.185Z,4.97
2022-09-15T05:58:32.626Z,4.93
2022-09-15T06:01:14.259Z,5.07
2022-09-15T06:03:41.348Z,4.75
2022-09-15T06:06:08.544Z,5.30
2022-09-15T06:08:39.667Z,5.80
2022-09-15T06:11:15.595Z,6.35
2022-09-15T06:13:43.312Z,5.65
2022-09-15T06:16:15.523Z,5.22
2022-09-15T06:18:42.583Z,5.15
2022-09-15T06:21:16.468Z,4.82
2022-09-15T06:23:47.250Z,5.15
2022-09-15T06:26:18.974Z,5.85
2022-09-15T06:28:51.518Z,5.25
2022-09-15T06:31:19.322Z,5.97
2022-09-15T06:33:48.451Z,5.93
2022-09-15T06:36:16.616Z,5.05
2022-09-15T06:38:44.530Z,7.93
2022-09-15T06:41:12.566Z,6.10
2022-09-15T06:43:40.252Z,6.78
2022-09-15T06:46:10.119Z,6.60
2022-09-15T06:48:38.327Z,6.05
2022-09-15T06:51:06.576Z,5.97
2022-09-15T06:53:36.079Z,6.28
2022-09-15T06:56:04.196Z,6.20
2022-09-15T06:58:32.292Z,6.55
2022-09-15T07:01:04.506Z,7.15
2022-09-15T07:03:31.885Z,7.20
2022-09-15T07:05:58.944Z,6.95
2022-09-15T07:08:25.842Z,8.18
2022-09-15T07:10:52.840Z,9.63
2022-09-15T07:13:19.739Z,7.93
2022-09-15T07:15:54.045Z,6.80
2022-09-15T07:18:21.782Z,7.05
2022-09-15T07:20:49.223Z,6.97
2022-09-15T07:23:16.823Z,7.30
2022-09-15T07:25:44.960Z,7.40
2022-09-15T07:28:15.796Z,9.43
2022-09-15T07:30:43.944Z,6.85
2022-09-15T07:33:12.957Z,7.25
2022-09-15T07:35:43.963Z,6.50
2022-09-15T07:38:11.414Z,6.35
2022-09-15T07:40:38.619Z,6.60
2022-09-15T07:43:06.553Z,6.30
2022-09-15T07:45:35.588Z,5.75
2022-09-15T07:48:02.870Z,6.30
2022-09-15T07:50:29.930Z,6.80
2022-09-15T07:52:57.246Z,5.72
2022-09-15T07:55:24.923Z,5.38
2022-09-15T07:58:00.522Z,5.43
2022-09-15T08:00:28.053Z,17.90
2022-09-15T08:02:55.420Z,6.85
2022-09-15T08:05:28.065Z,7.00
2022-09-15T08:07:56.124Z,5.72
2022-09-15T08:10:25.144Z,6.25
2022-09-15T08:12:52.923Z,6.32
2022-09-15T08:15:20.603Z,5.90
2022-09-15T08:17:47.678Z,5.32
2022-09-15T08:20:14.785Z,5.30
2022-09-15T08:22:42.175Z,5.45
2022-09-15T08:25:09.671Z,5.88
2022-09-15T08:27:36.620Z,5.10
2022-09-15T08:30:04.544Z,5.68
2022-09-15T08:32:31.533Z,4.82
2022-09-15T08:34:58.495Z,5.68
2022-09-15T08:37:25.472Z,5.28
2022-09-15T08:39:52.473Z,5.40
2022-09-15T08:42:21.986Z,5.53
2022-09-15T08:44:55.917Z,5.32
2022-09-15T08:47:33.496Z,6.15
2022-09-15T08:50:18.538Z,6.25
2022-09-15T08:52:51.373Z,6.00
2022-09-15T08:55:27.826Z,5.65
2022-09-15T08:57:55.004Z,7.25
2022-09-15T09:00:21.953Z,5.85
2022-09-15T09:03:03.840Z,5.47
2022-09-15T09:05:52.065Z,5.38
2022-09-15T09:09:04.213Z,5.78
2022-09-15T09:11:42.800Z,5.35
2022-09-15T09:14:29.970Z,5.35
2022-09-15T09:17:25.493Z,4.93
2022-09-15T09:20:15.471Z,4.10
2022-09-15T09:22:46.359Z,4.60
2022-09-15T09:25:27.267Z,4.05
2022-09-15T09:27:58.163Z,4.05
2022-09-15T09:30:28.956Z,4.70
2022-09-15T09:33:18.374Z,5.22
2022-09-15T09:35:49.011Z,4.15
2022-09-15T09:38:27.267Z,3.70
2022-09-15T09:40:56.602Z,4.75
2022-09-15T09:43:29.153Z,4.07
2022-09-15T09:45:56.491Z,3.63
2022-09-15T09:48:26.031Z,3.50
2022-09-15T09:50:53.383Z,3.72
2022-09-15T09:53:32.991Z,3.08
2022-09-15T09:56:11.986Z,3.30
2022-09-15T09:58:38.960Z,3.15
2022-09-15T10:01:14.880Z,3.30
2022-09-15T10:03:43.328Z,3.63
2022-09-15T10:06:20.684Z,3.70
2022-09-15T10:09:05.718Z,3.50
2022-09-15T10:11:51.469Z,3.55
2022-09-15T10:14:27.778Z,3.17
2022-09-15T10:17:07.467Z,3.22
2022-09-15T10:19:47.746Z,3.10
2022-09-15T10:22:33.465Z,3.25
2022-09-15T10:25:02.604Z,3.13
2022-09-15T10:27:34.592Z,3.20
2022-09-15T10:30:14.525Z,3.63
2022-09-15T10:32:43.224Z,2.85
2022-09-15T10:35:14.321Z,3.28
2022-09-15T10:38:00.117Z,2.90
2022-09-15T10:40:48.241Z,3.22
2022-09-15T10:43:25.743Z,3.40
2022-09-15T10:46:25.203Z,3.42
2022-09-15T10:49:17.016Z,3.83
2022-09-15T10:51:53.146Z,3.90
2022-09-15T10:54:22.969Z,3.35
2022-09-15T10:56:56.294Z,3.60
2022-09-15T10:59:23.209Z,3.00
2022-09-15T11:02:14.978Z,3.05
2022-09-15T11:04:42.157Z,2.80
2022-09-15T11:07:19.347Z,3.05
2022-09-15T11:09:52.971Z,3.10
2022-09-15T11:12:20.054Z,3.08
2022-09-15T11:15:07.321Z,3.13
2022-09-15T11:17:39.500Z,3.22
2022-09-15T11:20:25.357Z,3.20
2022-09-15T11:23:09.491Z,3.05
2022-09-15T11:25:43.528Z,3.35
2022-09-15T11:28:44.651Z,3.60
2022-09-15T11:31:38.777Z,3.20
2022-09-15T11:34:43.910Z,3.28
2022-09-15T11:37:24.090Z,3.38
2022-09-15T11:40:04.873Z,2.97
2022-09-15T11:42:46.609Z,3.17
2022-09-15T11:45:19.950Z,3.40
2022-09-15T11:47:55.916Z,3.10
2022-09-15T11:50:34.954Z,3.28
2022-09-15T11:53:08.951Z,2.22
2022-09-15T11:55:58.435Z,3.20
2022-09-15T11:58:34.567Z,2.67
2022-09-15T12:01:10.331Z,3.03
2022-09-15T12:04:08.926Z,2.50
2022-09-15T12:06:50.861Z,2.67
2022-09-15T12:09:20.274Z,2.78
2022-09-15T12:11:56.957Z,3.17
2022-09-15T12:14:37.820Z,2.70
2022-09-15T12:17:06.547Z,4.18
2022-09-15T12:19:33.567Z,3.13
2022-09-15T12:22:31.963Z,3.20
2022-09-15T12:25:20.054Z,3.22
2022-09-15T12:28:24.068Z,3.03
2022-09-15T12:31:26.410Z,2.63
2022-09-15T12:34:27.040Z,2.40
2022-09-15T12:36:55.653Z,2.90
2022-09-15T12:39:39.882Z,2.95
2022-09-15T12:42:14.967Z,2.90
2022-09-15T12:44:47.838Z,2.85
2022-09-15T12:47:22.866Z,2.50
2022-09-15T12:49:51.514Z,2.42
2022-09-15T12:52:22.458Z,3.15
2022-09-15T12:54:57.598Z,3.17
2022-09-15T12:57:36.319Z,2.78
2022-09-15T13:00:31.496Z,2.78
2022-09-15T13:02:58.680Z,2.47
2022-09-15T13:05:46.083Z,2.83
2022-09-15T13:08:36.097Z,2.97
2022-09-15T13:11:12.627Z,2.88
2022-09-15T13:13:48.342Z,2.63
2022-09-15T13:16:43.694Z,3.15
2022-09-15T13:19:23.787Z,3.42
2022-09-15T13:22:11.325Z,2.97
2022-09-15T13:24:47.244Z,3.20
2022-09-15T13:27:21.536Z,3.38
2022-09-15T13:30:09.994Z,7.90
2022-09-15T13:32:49.011Z,6.93
2022-09-15T13:35:27.712Z,2.45
2022-09-15T13:38:26.496Z,2.42
2022-09-15T13:41:34.856Z,2.53
2022-09-15T13:44:23.297Z,2.67
2022-09-15T13:47:18.069Z,2.83
2022-09-15T13:49:56.817Z,2.53
2022-09-15T13:52:59.632Z,2.75
2022-09-15T13:55:34.053Z,2.70
2022-09-15T14:01:08.585Z,2.65
2022-09-15T14:03:48.251Z,2.10
2022-09-15T14:06:25.922Z,2.53
2022-09-15T14:08:58.820Z,2.47
2022-09-15T14:11:30.721Z,2.70
2022-09-15T14:13:59.271Z,2.35
2022-09-15T14:16:37.178Z,2.90
2022-09-15T14:19:28.974Z,2.65
2022-09-15T14:21:58.535Z,2.13
2022-09-15T14:24:29.545Z,2.13
2022-09-15T14:27:01.290Z,3.00
2022-09-15T14:29:28.359Z,2.42
2022-09-15T14:32:01.359Z,3.38
2022-09-15T14:34:32.973Z,2.28
2022-09-15T14:37:14.899Z,2.10
2022-09-15T14:39:49.783Z,2.38
2022-09-15T14:47:38.103Z,1.83
2022-09-15T14:50:21.578Z,2.42
2022-09-15T14:52:52.876Z,1.95
2022-09-15T14:55:28.249Z,2.13
2022-09-15T14:58:02.394Z,2.17
2022-09-15T15:00:34.598Z,1.90
2022-09-15T15:03:16.142Z,1.80
2022-09-15T15:06:02.613Z,2.00
2022-09-15T15:08:37.483Z,1.63
2022-09-15T15:11:07.936Z,2.00
2022-09-15T15:13:37.622Z,2.75
2022-09-15T15:16:19.055Z,1.92
2022-09-15T15:18:46.327Z,1.80
2022-09-15T15:21:38.332Z,1.73
2022-09-15T15:24:15.189Z,1.98
2022-09-15T15:26:44.946Z,1.83
2022-09-15T15:29:43.227Z,2.13
2022-09-15T15:32:36.773Z,1.90
2022-09-15T15:35:04.078Z,2.00
2022-09-15T15:37:33.843Z,2.05
2022-09-15T15:40:07.380Z,1.80
2022-09-15T15:42:34.792Z,1.63
2022-09-15T15:45:23.829Z,2.30
2022-09-15T15:47:51.183Z,2.00
2022-09-15T15:50:20.899Z,1.88
2022-09-15T15:52:52.099Z,2.03
2022-09-15T15:55:24.256Z,2.00
2022-09-15T15:57:54.294Z,1.40
2022-09-15T16:00:40.802Z,1.85
2022-09-15T16:03:09.089Z,1.58
2022-09-15T16:05:37.275Z,1.83
2022-09-15T16:08:23.472Z,2.08
2022-09-15T16:10:51.483Z,1.83
2022-09-15T16:13:20.750Z,2.33
2022-09-15T16:15:48.230Z,1.95
2022-09-15T16:18:15.782Z,2.25
2022-09-15T16:20:43.268Z,1.40
2022-09-15T16:23:15.499Z,1.85
2022-09-15T16:25:47.452Z,1.83
2022-09-15T16:28:14.564Z,1.80
2022-09-15T16:30:41.663Z,2.00
2022-09-15T16:33:15.522Z,2.28
2022-09-15T16:35:51.018Z,2.00
2022-09-15T16:38:20.093Z,2.03
2022-09-15T16:40:48.465Z,1.98
2022-09-15T16:43:19.314Z,2.20
2022-09-15T16:45:46.531Z,2.30
2022-09-15T16:48:13.897Z,2.60
2022-09-15T16:50:50.523Z,2.22
2022-09-15T16:53:26.599Z,1.98
2022-09-15T16:55:57.421Z,2.10
2022-09-15T16:58:24.449Z,2.17
2022-09-15T17:00:52.769Z,2.08
2022-09-15T17:03:23.848Z,2.10
2022-09-15T17:05:56.384Z,1.95
2022-09-15T17:08:27.314Z,1.85
2022-09-15T17:10:56.899Z,2.05
2022-09-15T17:13:29.291Z,1.98
2022-09-15T17:15:58.553Z,1.75
2022-09-15T17:18:26.523Z,1.90
2022-09-15T17:20:54.080Z,1.95
2022-09-15T17:23:21.033Z,1.58
2022-09-15T17:25:53.970Z,1.95
2022-09-15T17:28:22.773Z,1.90
2022-09-15T17:30:57.028Z,1.70
2022-09-15T17:33:24.816Z,2.25
2022-09-15T17:35:52.189Z,2.30
2022-09-15T17:38:21.623Z,2.30
2022-09-15T17:40:50.427Z,2.55
2022-09-15T17:43:19.604Z,2.80
2022-09-15T17:45:47.805Z,3.80
2022-09-15T17:48:14.960Z,2.95
2022-09-15T17:50:42.558Z,2.10
2022-09-15T17:53:24.086Z,2.35
2022-09-15T17:55:51.194Z,1.92
2022-09-15T17:58:18.386Z,2.10
2022-09-15T18:00:47.595Z,2.25
2022-09-15T18:03:34.024Z,2.38
2022-09-15T18:06:05.152Z,2.38
2022-09-15T18:08:33.203Z,2.78
2022-09-15T18:11:00.807Z,2.45
2022-09-15T18:13:29.911Z,2.38
2022-09-15T18:15:57.972Z,2.70
2022-09-15T18:18:27.179Z,2.65
2022-09-15T18:20:57.800Z,2.22
2022-09-15T18:23:28.303Z,2.45
2022-09-15T18:25:55.354Z,2.60
2022-09-15T18:28:22.478Z,2.28
2022-09-15T18:30:50.555Z,2.92
2022-09-15T18:33:21.091Z,2.67
2022-09-15T18:35:50.091Z,2.55
2022-09-15T18:38:17.824Z,2.67
2022-09-15T18:40:50.922Z,2.63
2022-09-15T18:43:18.049Z,2.25
2022-09-15T18:45:45.140Z,2.25
2022-09-15T18:48:13.071Z,2.80
2022-09-15T18:50:41.696Z,2.63
2022-09-15T18:53:09.399Z,2.53
2022-09-15T18:55:36.393Z,3.00
2022-09-15T18:58:03.504Z,2.90
2022-09-15T19:00:31.725Z,3.10
2022-09-15T19:03:00.933Z,2.53
2022-09-15T19:05:29.510Z,2.83
2022-09-15T19:07:57.140Z,3.00
2022-09-15T19:10:26.557Z,3.00
2022-09-15T19:12:54.486Z,3.05
2022-09-15T19:15:24.438Z,3.38
2022-09-15T19:17:51.507Z,2.80
2022-09-15T19:20:18.513Z,3.20
2022-09-15T19:22:46.108Z,3.13
2022-09-15T19:25:13.588Z,2.80
2022-09-15T19:27:41.197Z,3.25
2022-09-15T19:30:12.675Z,2.75
2022-09-15T19:32:40.589Z,3.03
2022-09-15T19:35:08.711Z,2.53
2022-09-15T19:37:38.287Z,2.80
2022-09-15T19:40:09.692Z,2.70
2022-09-15T19:42:38.564Z,2.70
2022-09-15T19:45:06.639Z,3.00
2022-09-15T19:47:34.089Z,2.92
2022-09-15T19:50:01.305Z,3.22
2022-09-15T19:52:28.576Z,3.00
2022-09-15T19:54:55.477Z,2.70
2022-09-15T19:57:22.810Z,2.63
2022-09-15T19:59:50.452Z,2.30
2022-09-15T20:02:17.573Z,2.30
2022-09-15T20:07:29.332Z,3.40
2022-09-15T20:09:56.183Z,2.83
2022-09-15T20:12:24.704Z,3.13
2022-09-15T20:14:51.837Z,2.60
2022-09-15T20:17:19.005Z,2.53
2022-09-15T20:19:45.898Z,2.88
2022-09-15T20:22:12.890Z,2.55
2022-09-15T20:24:40.271Z,2.75
2022-09-15T20:27:08.836Z,2.63
2022-09-15T20:29:35.869Z,2.85
2022-09-15T20:32:02.950Z,2.90
2022-09-15T20:34:29.909Z,3.00
2022-09-15T20:36:57.032Z,3.25
2022-09-15T20:39:24.880Z,2.83
2022-09-15T20:41:51.956Z,3.08
2022-09-15T20:44:19.021Z,3.00
2022-09-15T20:46:45.939Z,2.83
2022-09-15T20:49:12.864Z,2.55
2022-09-15T20:51:40.142Z,3.22
2022-09-15T20:54:07.087Z,3.15
2022-09-15T20:56:35.472Z,3.40
2022-09-15T20:59:04.421Z,2.90
2022-09-15T21:01:39.288Z,3.47
2022-09-15T21:04:08.455Z,2.72
2022-09-15T21:06:35.897Z,3.38
2022-09-15T21:09:04.393Z,3.17
2022-09-15T21:11:31.718Z,3.38
2022-09-15T21:13:58.909Z,3.13
2022-09-15T21:16:28.183Z,3.70
2022-09-15T21:18:57.671Z,2.72
2022-09-15T21:21:26.829Z,3.58
2022-09-15T21:23:56.239Z,3.80
2022-09-15T21:26:28.616Z,3.00
2022-09-15T21:28:57.241Z,3.17
2022-09-15T21:31:29.999Z,3.10
2022-09-15T21:33:58.170Z,3.53
2022-09-15T21:36:26.942Z,3.28
2022-09-15T21:38:56.415Z,3.80
2022-09-15T21:41:26.052Z,3.40
2022-09-15T21:43:54.934Z,3.70
2022-09-15T21:46:31.940Z,3.85
2022-09-15T21:49:00.040Z,4.03
2022-09-15T21:51:28.759Z,3.53
2022-09-15T21:53:57.771Z,3.60
2022-09-15T21:56:25.966Z,3.58
2022-09-15T21:58:54.248Z,3.25
2022-09-15T22:01:22.723Z,4.00
2022-09-15T22:03:56.917Z,3.33
2022-09-15T22:06:31.510Z,3.67
2022-09-15T22:09:04.318Z,3.40
2022-09-15T22:11:32.248Z,3.20
2022-09-15T22:14:01.745Z,3.45
2022-09-15T22:16:29.210Z,3.28
2022-09-15T22:18:56.498Z,3.38
2022-09-15T22:21:26.454Z,3.60
2022-09-15T22:23:58.399Z,3.65
2022-09-15T22:26:28.225Z,3.38
2022-09-15T22:28:55.987Z,3.50
2022-09-15T22:31:24.196Z,3.63
2022-09-15T22:33:51.897Z,3.30
2022-09-15T22:36:24.062Z,3.53
2022-09-15T22:38:54.357Z,4.53
2022-09-15T22:41:25.212Z,3.50
2022-09-15T22:43:52.241Z,3.55
2022-09-15T22:46:19.678Z,3.75
2022-09-15T22:48:46.891Z,3.63
2022-09-15T22:51:14.818Z,3.47
2022-09-15T22:53:42.529Z,4.10
2022-09-15T22:56:19.883Z,3.63
2022-09-15T22:58:48.879Z,4.18
2022-09-15T23:01:22.112Z,3.58
2022-09-15T23:03:53.590Z,3.70
2022-09-15T23:06:21.819Z,3.90
2022-09-15T23:08:53.717Z,3.97
2022-09-15T23:11:21.590Z,3.45
2022-09-15T23:13:49.385Z,3.35
2022-09-15T23:16:17.258Z,3.90
2022-09-15T23:18:44.511Z,4.05
2022-09-15T23:21:12.675Z,4.28
2022-09-15T23:23:41.481Z,3.47
2022-09-15T23:26:11.340Z,3.90
2022-09-15T23:28:39.810Z,3.58
2022-09-15T23:31:07.427Z,3.80
2022-09-15T23:33:34.708Z,3.78
2022-09-15T23:36:04.117Z,3.35
2022-09-15T23:38:34.412Z,3.22
2022-09-15T23:41:01.404Z,4.50
2022-09-15T23:43:28.316Z,5.22
2022-09-15T23:45:55.263Z,3.83
2022-09-15T23:48:23.357Z,3.90
2022-09-15T23:50:50.436Z,3.83
2022-09-15T23:53:18.345Z,4.53
2022-09-15T23:55:46.286Z,3.65
2022-09-15T23:58:13.577Z,3.63
